Time;durP1;ratioP1;P1;durP2;ratioP2;P2;SDS_P1;SDS_P2;PMS_P1;PMS_P2;Temp;Humidity;BMP_temperature;BMP_pressure;BME280_temperature;BME280_humidity;BME280_pressure;Samples;Min_cycle;Max_cycle;Signal;HPM_P1;HPM_P2
2023/04/02 00:00:31;;;;;;;;;;;10.60;64.10;;;;;;5035803;28;19920;-60
2023/04/02 00:03:04;;;;;;;;;;;10.50;64.10;;;;;;5034028;28;19921;-60
2023/04/02 00:05:49;;;;;;;;;;;10.50;64.00;;;;;;5033073;28;19920;-60
2023/04/02 00:08:19;;;;;;;;;;;10.50;64.00;;;;;;5032851;28;19928;-60
2023/04/02 00:10:47;;;;;;;;;;;10.40;64.10;;;;;;5033582;28;19999;-60
2023/04/02 00:13:21;;;;;;;;;;;10.30;64.20;;;;;;5032566;28;19917;-60
2023/04/02 00:15:47;;;;;;;;;;;10.40;64.30;;;;;;5033548;28;19920;-60
2023/04/02 00:18:17;;;;;;;;;;;10.30;64.30;;;;;;5033662;28;19914;-59
2023/04/02 00:20:45;;;;;;;;;;;10.30;64.40;;;;;;5038124;28;19913;-62
2023/04/02 00:23:11;;;;;;;;;;;10.40;64.50;;;;;;5053354;28;19917;-60
2023/04/02 00:25:41;;;;;;;;;;;10.40;64.40;;;;;;5053446;28;20368;-59
2023/04/02 00:28:18;;;;;;;;;;;10.30;64.50;;;;;;5053433;28;20011;-59
2023/04/02 00:30:51;;;;;;;;;;;10.40;64.50;;;;;;5053849;28;19921;-59
2023/04/02 00:33:18;;;;;;;;;;;10.40;64.50;;;;;;5036016;28;19913;-59
2023/04/02 00:35:44;;;;;;;;;;;10.40;64.40;;;;;;5044303;28;19917;-60
2023/04/02 00:38:30;;;;;;;;;;;10.40;64.50;;;;;;5053015;28;19919;-59
2023/04/02 00:40:57;;;;;;;;;;;10.40;64.40;;;;;;5052621;28;19917;-59
2023/04/02 00:43:26;;;;;;;;;;;10.40;64.50;;;;;;5052656;28;20399;-59
2023/04/02 00:45:56;;;;;;;;;;;10.40;64.50;;;;;;5035471;28;19992;-59
2023/04/02 00:48:27;;;;;;;;;;;10.50;64.40;;;;;;5032922;28;19960;-59
2023/04/02 00:50:53;;;;;;;;;;;10.40;64.30;;;;;;5031645;28;19953;-59
2023/04/02 00:53:29;;;;;;;;;;;10.40;64.30;;;;;;5032773;28;19920;-60
2023/04/02 00:55:57;;;;;;;;;;;10.40;64.10;;;;;;5042007;28;19995;-60
2023/04/02 00:58:27;;;;;;;;;;;10.30;64.20;;;;;;5048753;28;20400;-60
2023/04/02 01:00:53;;;;;;;;;;;10.30;64.20;;;;;;5029150;28;19913;-61
2023/04/02 01:03:18;;;;;;;;;;;10.30;64.20;;;;;;5024052;28;20396;-60
2023/04/02 01:06:01;;;;;;;;;;;10.30;64.20;;;;;;5017149;28;19921;-60
2023/04/02 01:08:34;;;;;;;;;;;10.30;64.20;;;;;;5012740;28;19913;-59
2023/04/02 01:10:59;;;;;;;;;;;10.30;64.30;;;;;;5022280;28;20357;-60
2023/04/02 01:13:27;;;;;;;;;;;10.30;64.00;;;;;;5017213;28;19917;-60
2023/04/02 01:16:04;;;;;;;;;;;10.30;64.00;;;;;;5027733;28;19971;-60
2023/04/02 01:18:36;;;;;;;;;;;10.30;64.00;;;;;;5012724;28;19917;-60
2023/04/02 01:21:24;;;;;;;;;;;10.30;64.10;;;;;;5031344;28;19928;-61
2023/04/02 01:23:52;;;;;;;;;;;10.30;64.00;;;;;;5025206;28;19925;-59
2023/04/02 01:26:53;;;;;;;;;;;10.30;64.00;;;;;;5031501;28;19916;-60
2023/04/02 01:29:20;;;;;;;;;;;10.30;64.00;;;;;;5030027;28;20021;-60
2023/04/02 01:31:47;;;;;;;;;;;10.30;64.00;;;;;;5031619;28;19959;-59
2023/04/02 01:34:14;;;;;;;;;;;10.30;63.90;;;;;;5032382;28;19913;-59
2023/04/02 01:36:45;;;;;;;;;;;10.20;63.90;;;;;;5051259;28;20249;-62
2023/04/02 01:39:16;;;;;;;;;;;10.20;63.90;;;;;;5052182;28;19927;-61
2023/04/02 01:41:47;;;;;;;;;;;10.20;63.80;;;;;;5052368;28;19912;-59
2023/04/02 01:44:18;;;;;;;;;;;10.20;63.90;;;;;;5035310;28;20280;-59
2023/04/02 01:46:46;;;;;;;;;;;10.20;63.90;;;;;;5032621;28;19913;-59
2023/04/02 01:49:17;;;;;;;;;;;10.20;64.00;;;;;;5032539;28;20329;-59
2023/04/02 01:51:44;;;;;;;;;;;10.20;63.50;;;;;;5032421;28;19986;-59
2023/04/02 01:54:11;;;;;;;;;;;10.10;63.30;;;;;;5031852;28;19917;-59
2023/04/02 01:56:38;;;;;;;;;;;10.00;63.30;;;;;;5032041;28;20316;-59
2023/04/02 01:59:04;;;;;;;;;;;10.00;63.20;;;;;;5029629;28;19913;-59
2023/04/02 02:01:37;;;;;;;;;;;10.00;63.30;;;;;;5030672;28;19964;-59
2023/04/02 02:04:02;;;;;;;;;;;9.90;63.20;;;;;;5015082;28;19964;-59
2023/04/02 02:06:28;;;;;;;;;;;9.90;63.30;;;;;;5020268;28;19952;-64
2023/04/02 02:08:56;;;;;;;;;;;9.80;63.40;;;;;;5031005;28;19952;-60
2023/04/02 02:11:24;;;;;;;;;;;9.80;63.50;;;;;;5030853;28;19917;-59
2023/04/02 02:13:53;;;;;;;;;;;9.80;63.50;;;;;;5030791;28;19913;-62
2023/04/02 02:16:19;;;;;;;;;;;9.90;63.50;;;;;;5031951;28;19956;-59
2023/04/02 02:18:48;;;;;;;;;;;9.80;63.50;;;;;;5031484;28;19942;-60
2023/04/02 02:21:20;;;;;;;;;;;9.80;63.70;;;;;;5035971;28;20151;-59
2023/04/02 02:23:45;;;;;;;;;;;9.80;63.60;;;;;;5031466;28;19983;-59
2023/04/02 02:26:11;;;;;;;;;;;9.90;63.60;;;;;;5031604;28;20352;-62
2023/04/02 02:28:40;;;;;;;;;;;9.80;63.60;;;;;;5031502;28;19913;-59
2023/04/02 02:31:08;;;;;;;;;;;9.80;63.60;;;;;;5031535;28;19913;-59
2023/04/02 02:33:40;;;;;;;;;;;9.80;63.50;;;;;;5031416;28;19960;-60
2023/04/02 02:36:12;;;;;;;;;;;9.80;63.40;;;;;;5045194;28;20369;-63
2023/04/02 02:38:43;;;;;;;;;;;9.80;63.30;;;;;;5037722;28;19918;-63
2023/04/02 02:41:27;;;;;;;;;;;9.80;63.40;;;;;;5031447;28;20352;-59
2023/04/02 02:44:21;;;;;;;;;;;9.80;63.30;;;;;;5034633;28;19925;-59
2023/04/02 02:46:57;;;;;;;;;;;9.80;63.30;;;;;;5025854;28;19913;-61
2023/04/02 02:49:33;;;;;;;;;;;9.80;63.30;;;;;;5035159;28;19920;-64
2023/04/02 02:52:02;;;;;;;;;;;9.80;63.30;;;;;;5035764;28;20368;-60
2023/04/02 02:54:29;;;;;;;;;;;9.70;63.20;;;;;;5035243;28;20373;-60
2023/04/02 02:57:00;;;;;;;;;;;9.70;63.30;;;;;;5035482;28;20338;-60
2023/04/02 02:59:27;;;;;;;;;;;9.70;63.30;;;;;;5034878;28;19913;-59
2023/04/02 03:01:52;;;;;;;;;;;9.70;63.30;;;;;;5034732;28;19917;-60
2023/04/02 03:04:21;;;;;;;;;;;9.70;63.30;;;;;;5034840;28;19913;-59
2023/04/02 03:06:48;;;;;;;;;;;9.60;63.00;;;;;;5035014;28;20387;-60
2023/04/02 03:09:32;;;;;;;;;;;9.60;63.00;;;;;;5035037;28;19917;-60
2023/04/02 03:12:04;;;;;;;;;;;9.60;62.90;;;;;;5033306;28;19913;-59
2023/04/02 03:14:43;;;;;;;;;;;9.50;63.20;;;;;;5034854;28;19952;-60
2023/04/02 03:17:16;;;;;;;;;;;9.50;63.30;;;;;;5034918;28;20341;-59
2023/04/02 03:19:56;;;;;;;;;;;9.50;63.20;;;;;;5034633;28;19913;-59
2023/04/02 03:22:30;;;;;;;;;;;9.50;63.10;;;;;;5034157;28;19921;-60
2023/04/02 03:24:56;;;;;;;;;;;9.50;63.10;;;;;;5034617;28;19916;-59
2023/04/02 03:27:24;;;;;;;;;;;9.40;63.10;;;;;;5034357;28;19924;-59
2023/04/02 03:29:57;;;;;;;;;;;9.40;63.20;;;;;;5013983;28;19910;-60
2023/04/02 03:32:25;;;;;;;;;;;9.40;63.20;;;;;;5016639;28;20001;-59
2023/04/02 03:34:56;;;;;;;;;;;9.30;63.30;;;;;;5022099;28;20019;-59
2023/04/02 03:37:33;;;;;;;;;;;9.40;63.30;;;;;;5040171;28;19917;-60
2023/04/02 03:40:00;;;;;;;;;;;9.30;63.20;;;;;;5031598;28;19917;-60
2023/04/02 03:42:35;;;;;;;;;;;9.30;63.30;;;;;;5032961;28;19921;-60
2023/04/02 03:45:16;;;;;;;;;;;9.40;63.30;;;;;;5033592;28;19924;-60
2023/04/02 03:47:46;;;;;;;;;;;9.40;63.20;;;;;;5034209;28;20385;-60
2023/04/02 03:50:16;;;;;;;;;;;9.30;63.10;;;;;;5034309;28;19910;-60
2023/04/02 03:52:42;;;;;;;;;;;9.30;63.20;;;;;;5034085;28;19968;-60
2023/04/02 03:55:14;;;;;;;;;;;9.30;63.20;;;;;;5028950;28;19949;-60
2023/04/02 03:58:00;;;;;;;;;;;9.20;63.30;;;;;;5027284;28;19921;-60
2023/04/02 04:00:35;;;;;;;;;;;9.20;63.30;;;;;;5017015;28;19914;-59
2023/04/02 04:03:08;;;;;;;;;;;9.30;63.30;;;;;;5027664;28;20427;-59
2023/04/02 04:05:36;;;;;;;;;;;9.30;63.20;;;;;;5030420;28;20149;-60
2023/04/02 04:08:06;;;;;;;;;;;9.20;63.20;;;;;;5016852;28;19925;-59
2023/04/02 04:10:33;;;;;;;;;;;9.20;62.90;;;;;;5013968;28;19914;-60
2023/04/02 04:13:04;;;;;;;;;;;9.30;63.00;;;;;;5013776;28;19965;-63
2023/04/02 04:15:33;;;;;;;;;;;9.20;62.70;;;;;;5015914;28;19914;-59
2023/04/02 04:18:18;;;;;;;;;;;9.20;62.90;;;;;;5050942;28;19916;-59
2023/04/02 04:20:48;;;;;;;;;;;9.10;62.90;;;;;;5038058;28;20007;-59
2023/04/02 04:23:18;;;;;;;;;;;9.10;62.80;;;;;;5050808;28;20008;-59
2023/04/02 04:25:44;;;;;;;;;;;9.10;62.90;;;;;;5042221;28;19928;-59
2023/04/02 04:28:16;;;;;;;;;;;9.10;62.80;;;;;;5043617;28;20369;-59
2023/04/02 04:30:49;;;;;;;;;;;9.10;62.70;;;;;;5039876;28;20380;-59
2023/04/02 04:33:21;;;;;;;;;;;9.00;62.80;;;;;;5030463;28;20009;-59
2023/04/02 04:35:48;;;;;;;;;;;9.00;62.90;;;;;;5035991;28;19921;-60
2023/04/02 04:38:32;;;;;;;;;;;9.00;62.90;;;;;;5050402;28;19938;-63
2023/04/02 04:41:03;;;;;;;;;;;9.00;62.80;;;;;;5053097;28;19916;-59
2023/04/02 04:43:36;;;;;;;;;;;8.90;62.80;;;;;;5052783;28;19917;-59
2023/04/02 04:46:04;;;;;;;;;;;8.90;62.70;;;;;;5052985;28;20267;-59
2023/04/02 04:48:48;;;;;;;;;;;8.90;62.90;;;;;;5052743;28;19912;-59
2023/04/02 04:51:18;;;;;;;;;;;9.00;62.80;;;;;;5053146;28;19916;-62
2023/04/02 04:53:47;;;;;;;;;;;8.90;62.80;;;;;;5032987;28;19913;-59
2023/04/02 04:56:14;;;;;;;;;;;8.90;62.90;;;;;;5032727;28;19916;-59
2023/04/02 04:58:42;;;;;;;;;;;8.90;63.00;;;;;;5032719;28;20296;-59
2023/04/02 05:01:10;;;;;;;;;;;8.80;62.90;;;;;;5032718;28;20317;-59
2023/04/02 05:03:54;;;;;;;;;;;8.90;63.00;;;;;;5032457;28;19928;-59
2023/04/02 05:06:33;;;;;;;;;;;8.90;62.80;;;;;;5032615;28;19921;-59
2023/04/02 05:09:01;;;;;;;;;;;8.90;62.90;;;;;;5032525;28;19920;-60
2023/04/02 05:11:31;;;;;;;;;;;8.90;62.80;;;;;;5032684;28;19913;-59
2023/04/02 05:13:59;;;;;;;;;;;8.80;62.90;;;;;;5040773;28;20284;-58
2023/04/02 05:16:44;;;;;;;;;;;8.90;63.00;;;;;;5031234;28;19956;-58
2023/04/02 05:19:17;;;;;;;;;;;8.90;63.00;;;;;;5031285;28;19924;-58
2023/04/02 05:22:02;;;;;;;;;;;8.90;63.00;;;;;;5032463;28;20324;-58
2023/04/02 05:24:46;;;;;;;;;;;8.90;62.90;;;;;;5029922;28;19924;-58
2023/04/02 05:27:15;;;;;;;;;;;8.80;62.90;;;;;;5019963;28;19975;-58
2023/04/02 05:29:43;;;;;;;;;;;8.90;63.00;;;;;;5028959;28;19949;-58
2023/04/02 05:32:20;;;;;;;;;;;8.80;63.00;;;;;;5024018;28;20003;-58
2023/04/02 05:34:48;;;;;;;;;;;8.80;63.10;;;;;;5035010;28;19917;-61
2023/04/02 05:37:17;;;;;;;;;;;8.90;63.10;;;;;;5052355;28;19978;-58
2023/04/02 05:39:44;;;;;;;;;;;8.90;63.00;;;;;;5051437;28;20277;-59
2023/04/02 05:42:17;;;;;;;;;;;8.90;62.70;;;;;;5050420;28;20279;-60
2023/04/02 05:44:54;;;;;;;;;;;8.90;63.00;;;;;;5030115;28;21367;-64
2023/04/02 05:47:21;;;;;;;;;;;8.90;62.80;;;;;;5029610;28;19975;-61
2023/04/02 05:49:50;;;;;;;;;;;9.00;62.80;;;;;;5030782;28;20360;-58
2023/04/02 05:52:22;;;;;;;;;;;8.90;62.70;;;;;;5032100;28;19964;-62
2023/04/02 05:54:57;;;;;;;;;;;9.00;62.70;;;;;;5029421;28;19939;-59
2023/04/02 05:57:30;;;;;;;;;;;9.00;62.80;;;;;;5030438;28;20297;-59
2023/04/02 05:59:58;;;;;;;;;;;9.00;62.70;;;;;;5031544;28;19948;-58
2023/04/02 06:02:35;;;;;;;;;;;9.10;62.60;;;;;;5031345;28;20350;-58
2023/04/02 06:05:11;;;;;;;;;;;9.10;62.60;;;;;;5031385;28;19909;-59
2023/04/02 06:07:43;;;;;;;;;;;9.10;62.10;;;;;;5031585;28;19963;-58
2023/04/02 06:10:29;;;;;;;;;;;9.10;62.30;;;;;;5031802;28;19948;-59
2023/04/02 06:13:02;;;;;;;;;;;9.10;62.70;;;;;;5031403;28;19913;-59
2023/04/02 06:15:28;;;;;;;;;;;9.20;62.80;;;;;;5031345;28;19919;-59
2023/04/02 06:17:58;;;;;;;;;;;9.20;62.80;;;;;;5030622;28;19914;-59
2023/04/02 06:20:23;;;;;;;;;;;9.30;62.50;;;;;;5031340;28;20012;-59
2023/04/02 06:22:55;;;;;;;;;;;9.40;62.40;;;;;;5031124;28;20389;-59
2023/04/02 06:25:29;;;;;;;;;;;9.40;62.30;;;;;;5031297;28;20254;-59
2023/04/02 06:27:57;;;;;;;;;;;9.30;62.00;;;;;;5031321;28;19964;-59
2023/04/02 06:30:24;;;;;;;;;;;9.40;62.10;;;;;;5031037;28;20004;-59
2023/04/02 06:32:49;;;;;;;;;;;9.40;61.50;;;;;;5031017;28;19967;-59
2023/04/02 06:35:15;;;;;;;;;;;9.40;61.60;;;;;;5038184;28;19917;-59
2023/04/02 06:37:48;;;;;;;;;;;9.40;61.90;;;;;;5051286;28;20004;-58
2023/04/02 06:40:29;;;;;;;;;;;9.40;62.60;;;;;;5038822;28;20115;-64
2023/04/02 06:42:58;;;;;;;;;;;9.50;62.70;;;;;;5029627;28;19925;-60
2023/04/02 06:45:27;;;;;;;;;;;9.70;63.20;;;;;;5031352;28;19989;-59
2023/04/02 06:47:54;;;;;;;;;;;9.90;62.80;;;;;;5030932;28;19913;-66
2023/04/02 06:50:30;;;;;;;;;;;10.00;62.70;;;;;;5029270;28;19913;-58
2023/04/02 06:53:00;;;;;;;;;;;10.20;61.80;;;;;;5030988;28;20415;-59
2023/04/02 06:55:26;;;;;;;;;;;10.20;61.60;;;;;;5030852;28;20284;-59
2023/04/02 06:57:51;;;;;;;;;;;10.20;61.20;;;;;;5029572;28;19917;-59
2023/04/02 07:00:25;;;;;;;;;;;10.20;61.30;;;;;;5028471;28;20404;-59
2023/04/02 07:02:51;;;;;;;;;;;10.20;61.20;;;;;;5030674;28;19921;-59
2023/04/02 07:05:17;;;;;;;;;;;10.20;61.30;;;;;;5031043;28;19909;-59
2023/04/02 07:07:43;;;;;;;;;;;10.20;61.20;;;;;;5031237;28;19932;-62
2023/04/02 07:10:09;;;;;;;;;;;10.20;61.60;;;;;;5029823;28;20289;-60
2023/04/02 07:12:34;;;;;;;;;;;10.20;61.20;;;;;;5030792;28;19921;-60
2023/04/02 07:15:00;;;;;;;;;;;10.20;61.10;;;;;;5050030;28;19909;-59
2023/04/02 07:17:25;;;;;;;;;;;10.20;60.90;;;;;;5050893;28;19940;-59
2023/04/02 07:19:50;;;;;;;;;;;10.20;61.20;;;;;;5050801;28;19922;-60
2023/04/02 07:22:16;;;;;;;;;;;10.30;61.30;;;;;;5028202;28;20361;-60
2023/04/02 07:24:42;;;;;;;;;;;10.30;61.20;;;;;;5026440;28;19917;-59
2023/04/02 07:27:09;;;;;;;;;;;10.30;61.30;;;;;;5030390;28;20372;-59
2023/04/02 07:29:34;;;;;;;;;;;10.30;61.20;;;;;;5031037;28;20400;-59
2023/04/02 07:32:00;;;;;;;;;;;10.30;61.30;;;;;;5033016;28;19959;-63
2023/04/02 07:34:25;;;;;;;;;;;10.40;60.00;;;;;;5033341;28;19917;-60
2023/04/02 07:36:51;;;;;;;;;;;10.40;61.10;;;;;;5034893;28;19959;-59
2023/04/02 07:39:16;;;;;;;;;;;10.40;60.20;;;;;;5029794;28;19956;-60
2023/04/02 07:41:55;;;;;;;;;;;10.40;60.10;;;;;;5033579;28;19917;-60
2023/04/02 07:44:21;;;;;;;;;;;10.40;60.10;;;;;;5033756;28;20392;-59
2023/04/02 07:46:46;;;;;;;;;;;10.40;60.10;;;;;;5033203;28;19971;-59
2023/04/02 07:49:11;;;;;;;;;;;10.40;59.00;;;;;;5018933;28;20416;-59
2023/04/02 07:51:37;;;;;;;;;;;10.40;59.70;;;;;;5014098;28;19972;-60
2023/04/02 07:54:03;;;;;;;;;;;10.40;60.10;;;;;;5016227;28;20467;-58
2023/04/02 07:56:29;;;;;;;;;;;10.50;59.70;;;;;;5014228;28;19913;-59
2023/04/02 07:58:54;;;;;;;;;;;10.50;60.00;;;;;;5014545;28;19921;-60
2023/04/02 08:01:23;;;;;;;;;;;10.50;59.60;;;;;;5024418;28;19967;-59
2023/04/02 08:03:48;;;;;;;;;;;10.50;59.50;;;;;;5014178;28;19918;-58
2023/04/02 08:06:14;;;;;;;;;;;10.50;60.00;;;;;;5033647;28;19967;-59
2023/04/02 08:08:40;;;;;;;;;;;10.30;59.20;;;;;;5033584;28;19919;-59
2023/04/02 08:11:06;;;;;;;;;;;10.40;59.20;;;;;;5033729;28;20279;-59
2023/04/02 08:13:31;;;;;;;;;;;10.30;59.60;;;;;;5033459;28;20403;-58
2023/04/02 08:15:57;;;;;;;;;;;10.40;59.70;;;;;;5033812;28;19959;-61
2023/04/02 08:18:23;;;;;;;;;;;10.60;59.20;;;;;;5033486;28;20331;-59
2023/04/02 08:20:48;;;;;;;;;;;10.60;60.10;;;;;;5033374;28;19989;-60
2023/04/02 08:23:16;;;;;;;;;;;10.70;58.70;;;;;;5033293;28;19932;-58
2023/04/02 08:25:42;;;;;;;;;;;10.70;58.90;;;;;;5033498;28;19945;-58
2023/04/02 08:28:08;;;;;;;;;;;10.70;58.40;;;;;;5033311;28;19951;-59
2023/04/02 08:30:33;;;;;;;;;;;10.70;58.90;;;;;;5033466;28;19921;-59
2023/04/02 08:32:58;;;;;;;;;;;10.80;58.50;;;;;;5033405;28;19913;-58
2023/04/02 08:35:25;;;;;;;;;;;10.70;57.80;;;;;;5041404;28;19913;-58
2023/04/02 08:37:50;;;;;;;;;;;10.70;58.30;;;;;;5053014;28;19959;-58
2023/04/02 08:40:22;;;;;;;;;;;10.70;59.00;;;;;;5052118;28;19916;-59
2023/04/02 08:43:11;;;;;;;;;;;10.70;58.10;;;;;;5053003;28;19917;-58
2023/04/02 08:45:37;;;;;;;;;;;10.80;58.20;;;;;;5044527;28;19917;-60
2023/04/02 08:48:04;;;;;;;;;;;10.80;59.10;;;;;;5031101;28;20504;-58
2023/04/02 08:50:34;;;;;;;;;;;10.80;58.80;;;;;;5028624;28;19917;-58
2023/04/02 08:53:02;;;;;;;;;;;10.80;58.10;;;;;;5043165;28;20408;-58
2023/04/02 08:55:35;;;;;;;;;;;10.90;57.70;;;;;;5027891;28;20000;-58
2023/04/02 08:58:15;;;;;;;;;;;10.90;58.00;;;;;;5031797;28;19913;-59
2023/04/02 09:00:43;;;;;;;;;;;10.90;58.00;;;;;;5033015;28;19913;-58
2023/04/02 09:03:15;;;;;;;;;;;11.10;58.90;;;;;;5032878;28;19932;-59
2023/04/02 09:05:42;;;;;;;;;;;11.20;56.90;;;;;;5032085;28;19917;-59
2023/04/02 09:08:14;;;;;;;;;;;11.30;57.00;;;;;;5032282;28;20348;-59
2023/04/02 09:10:43;;;;;;;;;;;11.40;57.70;;;;;;5032853;28;19913;-58
2023/04/02 09:13:29;;;;;;;;;;;11.60;57.10;;;;;;5031903;28;20000;-58
2023/04/02 09:16:15;;;;;;;;;;;11.70;56.20;;;;;;5029601;28;20015;-58
2023/04/02 09:18:41;;;;;;;;;;;11.70;57.00;;;;;;5030926;28;19932;-59
2023/04/02 09:21:20;;;;;;;;;;;11.80;57.60;;;;;;5028912;28;19959;-59
2023/04/02 09:23:46;;;;;;;;;;;12.00;56.70;;;;;;5029565;28;19940;-62
2023/04/02 09:26:20;;;;;;;;;;;12.00;56.10;;;;;;5032152;28;19909;-59
2023/04/02 09:28:46;;;;;;;;;;;12.00;55.30;;;;;;5031073;28;19924;-62
2023/04/02 09:31:17;;;;;;;;;;;11.90;54.60;;;;;;5028114;28;19913;-59
2023/04/02 09:33:47;;;;;;;;;;;11.90;54.70;;;;;;5022381;28;19917;-59
2023/04/02 09:36:36;;;;;;;;;;;11.80;54.60;;;;;;5031908;28;19917;-59
2023/04/02 09:39:05;;;;;;;;;;;11.90;53.60;;;;;;5025328;28;19932;-59
2023/04/02 09:41:32;;;;;;;;;;;12.00;55.50;;;;;;5026128;28;19959;-58
2023/04/02 09:44:12;;;;;;;;;;;12.10;55.30;;;;;;5030901;28;19917;-58
2023/04/02 09:46:46;;;;;;;;;;;12.30;55.70;;;;;;5029965;28;20345;-58
2023/04/02 09:49:14;;;;;;;;;;;12.40;56.00;;;;;;5029990;28;20392;-57
2023/04/02 09:51:40;;;;;;;;;;;12.60;55.80;;;;;;5028759;28;20354;-58
2023/04/02 09:54:15;;;;;;;;;;;12.60;54.80;;;;;;5027994;28;20008;-59
2023/04/02 09:56:59;;;;;;;;;;;12.70;54.00;;;;;;5028702;28;20012;-60
2023/04/02 09:59:24;;;;;;;;;;;12.70;53.90;;;;;;5029473;28;19921;-59
2023/04/02 10:01:53;;;;;;;;;;;12.80;52.80;;;;;;5029692;28;19917;-59
2023/04/02 10:04:34;;;;;;;;;;;12.80;52.40;;;;;;5030152;28;19975;-58
2023/04/02 10:07:00;;;;;;;;;;;12.80;52.90;;;;;;5030798;28;19913;-62
2023/04/02 10:09:30;;;;;;;;;;;12.70;53.10;;;;;;5027666;28;19937;-59
2023/04/02 10:11:56;;;;;;;;;;;13.00;53.20;;;;;;5031249;28;19917;-59
2023/04/02 10:14:24;;;;;;;;;;;13.10;53.30;;;;;;5029955;28;20337;-59
2023/04/02 10:16:55;;;;;;;;;;;13.30;54.90;;;;;;5030111;28;19913;-60
2023/04/02 10:19:20;;;;;;;;;;;13.50;52.50;;;;;;5031056;28;19943;-60
2023/04/02 10:21:47;;;;;;;;;;;13.80;52.80;;;;;;5028808;28;19972;-60
2023/04/02 10:24:14;;;;;;;;;;;13.70;50.50;;;;;;5031289;28;20388;-59
2023/04/02 10:26:46;;;;;;;;;;;13.60;50.20;;;;;;5028619;28;19917;-60
2023/04/02 10:29:20;;;;;;;;;;;13.50;49.70;;;;;;5028872;28;19913;-59
2023/04/02 10:31:55;;;;;;;;;;;13.40;50.20;;;;;;5033412;28;20343;-59
2023/04/02 10:34:23;;;;;;;;;;;13.50;49.70;;;;;;5029903;28;20261;-63
2023/04/02 10:36:56;;;;;;;;;;;13.50;48.80;;;;;;5033199;28;19920;-59
2023/04/02 10:39:36;;;;;;;;;;;13.50;50.00;;;;;;5026401;28;20400;-60
2023/04/02 10:42:11;;;;;;;;;;;13.50;48.80;;;;;;5030888;28;19921;-59
2023/04/02 10:44:37;;;;;;;;;;;13.40;49.30;;;;;;5029638;28;19917;-58
2023/04/02 10:47:26;;;;;;;;;;;13.50;50.10;;;;;;5030894;28;20325;-59
2023/04/02 10:50:17;;;;;;;;;;;13.50;49.70;;;;;;5026583;28;20384;-59
2023/04/02 10:52:51;;;;;;;;;;;13.60;50.10;;;;;;5030075;28;19924;-59
2023/04/02 10:55:20;;;;;;;;;;;13.70;49.40;;;;;;5026717;28;19913;-61
2023/04/02 10:57:45;;;;;;;;;;;13.80;49.60;;;;;;5030488;28;19924;-60
2023/04/02 11:00:17;;;;;;;;;;;13.90;50.10;;;;;;5030108;28;19917;-58
2023/04/02 11:03:01;;;;;;;;;;;14.00;49.70;;;;;;5026885;28;20391;-60
2023/04/02 11:05:42;;;;;;;;;;;14.00;48.60;;;;;;5031395;28;19913;-60
2023/04/02 11:08:19;;;;;;;;;;;14.10;51.60;;;;;;5025423;28;19917;-60
2023/04/02 11:10:50;;;;;;;;;;;14.30;50.40;;;;;;5029207;28;20011;-59
2023/04/02 11:13:28;;;;;;;;;;;14.50;50.40;;;;;;5031617;28;19927;-61
2023/04/02 11:15:54;;;;;;;;;;;14.60;49.00;;;;;;5029766;28;19920;-58
2023/04/02 11:18:34;;;;;;;;;;;14.70;47.80;;;;;;5034176;28;19914;-59
2023/04/02 11:21:01;;;;;;;;;;;14.60;47.00;;;;;;5028363;28;19920;-58
2023/04/02 11:23:28;;;;;;;;;;;14.50;45.60;;;;;;5032750;28;19936;-59
2023/04/02 11:26:14;;;;;;;;;;;14.50;47.40;;;;;;5028440;28;19921;-59
2023/04/02 11:28:40;;;;;;;;;;;14.70;47.90;;;;;;5025594;28;19917;-58
2023/04/02 11:31:05;;;;;;;;;;;14.90;46.20;;;;;;5030249;28;19921;-59
2023/04/02 11:33:34;;;;;;;;;;;14.80;44.60;;;;;;5031387;28;20016;-58
2023/04/02 11:36:00;;;;;;;;;;;14.70;44.30;;;;;;5033958;28;19913;-60
2023/04/02 11:38:26;;;;;;;;;;;14.40;45.10;;;;;;5031063;28;19917;-59
2023/04/02 11:40:53;;;;;;;;;;;14.30;46.70;;;;;;5032031;28;20026;-58
2023/04/02 11:43:37;;;;;;;;;;;14.30;45.70;;;;;;5030928;28;19975;-59
2023/04/02 11:46:23;;;;;;;;;;;14.40;46.60;;;;;;5031850;28;20336;-60
2023/04/02 11:48:49;;;;;;;;;;;14.30;46.90;;;;;;5025138;28;19921;-58
2023/04/02 11:51:23;;;;;;;;;;;14.80;47.70;;;;;;5029736;28;19983;-60
2023/04/02 11:53:50;;;;;;;;;;;15.10;46.00;;;;;;5029129;28;19921;-59
2023/04/02 11:56:18;;;;;;;;;;;15.10;44.00;;;;;;5032229;28;19917;-61
2023/04/02 11:59:01;;;;;;;;;;;15.00;44.80;;;;;;5027877;28;20281;-59
2023/04/02 12:01:44;;;;;;;;;;;15.00;44.70;;;;;;5029108;28;19913;-59
2023/04/02 12:04:28;;;;;;;;;;;15.40;46.70;;;;;;5028420;28;19928;-70
2023/04/02 12:07:19;;;;;;;;;;;15.50;45.40;;;;;;5031615;28;19913;-59
2023/04/02 12:09:56;;;;;;;;;;;15.40;44.60;;;;;;5029161;28;20291;-59
2023/04/02 12:12:32;;;;;;;;;;;15.80;45.90;;;;;;5029494;28;19921;-59
2023/04/02 12:14:58;;;;;;;;;;;17.00;46.20;;;;;;5027373;28;19916;-59
2023/04/02 12:17:27;;;;;;;;;;;17.60;44.50;;;;;;5027707;28;20300;-59
2023/04/02 12:19:54;;;;;;;;;;;18.00;41.60;;;;;;5031391;28;19917;-59
2023/04/02 12:22:33;;;;;;;;;;;17.70;39.00;;;;;;5031157;28;19920;-60
2023/04/02 12:24:59;;;;;;;;;;;17.50;39.70;;;;;;5030587;28;19924;-58
2023/04/02 12:27:26;;;;;;;;;;;17.30;40.10;;;;;;5029008;28;19928;-58
2023/04/02 12:30:09;;;;;;;;;;;17.80;42.50;;;;;;5030218;28;19917;-62
2023/04/02 12:32:34;;;;;;;;;;;18.60;41.10;;;;;;5029496;28;20396;-59
2023/04/02 12:35:00;;;;;;;;;;;18.80;38.30;;;;;;5031254;28;19996;-61
2023/04/02 12:37:29;;;;;;;;;;;18.60;37.60;;;;;;5030491;28;19920;-58
2023/04/02 12:40:00;;;;;;;;;;;19.10;39.90;;;;;;5030317;28;19952;-60
2023/04/02 12:42:27;;;;;;;;;;;19.50;36.70;;;;;;5027368;28;19980;-61
2023/04/02 12:44:52;;;;;;;;;;;19.50;35.40;;;;;;5030863;28;20401;-59
2023/04/02 12:47:17;;;;;;;;;;;19.90;36.50;;;;;;5029273;28;19966;-59
2023/04/02 12:49:43;;;;;;;;;;;19.80;36.20;;;;;;5030975;28;20039;-59
2023/04/02 12:52:10;;;;;;;;;;;19.30;34.60;;;;;;5029816;28;20028;-58
2023/04/02 12:54:42;;;;;;;;;;;18.70;33.60;;;;;;5029334;28;19921;-59
2023/04/02 12:57:26;;;;;;;;;;;18.20;34.40;;;;;;5031276;28;19913;-58
2023/04/02 12:59:59;;;;;;;;;;;17.70;34.70;;;;;;5027379;28;19921;-58
2023/04/02 13:02:29;;;;;;;;;;;17.30;35.00;;;;;;5030291;28;19948;-59
2023/04/02 13:05:00;;;;;;;;;;;17.60;35.50;;;;;;5027223;28;19971;-58
2023/04/02 13:07:30;;;;;;;;;;;18.10;36.40;;;;;;5029336;28;19929;-59
2023/04/02 13:10:03;;;;;;;;;;;18.70;34.80;;;;;;5030536;28;19916;-59
2023/04/02 13:12:28;;;;;;;;;;;19.10;34.10;;;;;;5026340;28;19917;-60
2023/04/02 13:14:55;;;;;;;;;;;19.10;32.30;;;;;;5029559;28;20460;-59
2023/04/02 13:17:40;;;;;;;;;;;19.10;32.50;;;;;;5029830;28;19918;-59
2023/04/02 13:20:26;;;;;;;;;;;19.30;32.70;;;;;;5029354;28;19921;-58
2023/04/02 13:22:51;;;;;;;;;;;19.40;31.60;;;;;;5028064;28;20265;-59
2023/04/02 13:25:17;;;;;;;;;;;19.50;31.60;;;;;;5031617;28;19913;-59
2023/04/02 13:27:42;;;;;;;;;;;19.80;32.10;;;;;;5028644;28;20361;-59
2023/04/02 13:30:20;;;;;;;;;;;19.70;32.00;;;;;;5027264;28;20004;-59
2023/04/02 13:32:46;;;;;;;;;;;19.10;31.70;;;;;;5027343;28;19917;-59
2023/04/02 13:35:11;;;;;;;;;;;18.30;32.60;;;;;;5030185;28;20036;-59
2023/04/02 13:37:37;;;;;;;;;;;17.70;32.70;;;;;;5028246;28;19963;-59
2023/04/02 13:40:02;;;;;;;;;;;17.20;33.90;;;;;;5029180;28;20365;-59
2023/04/02 13:42:28;;;;;;;;;;;16.80;34.00;;;;;;5030445;28;19929;-59
2023/04/02 13:44:53;;;;;;;;;;;16.50;34.80;;;;;;5030235;28;20008;-58
2023/04/02 13:47:18;;;;;;;;;;;16.30;34.80;;;;;;5028937;28;19913;-59
2023/04/02 13:49:44;;;;;;;;;;;16.00;34.60;;;;;;5029474;28;19920;-58
2023/04/02 13:52:13;;;;;;;;;;;15.70;35.30;;;;;;5027498;28;20293;-57
2023/04/02 13:54:58;;;;;;;;;;;15.30;35.90;;;;;;5029155;28;19917;-59
2023/04/02 13:57:24;;;;;;;;;;;15.00;36.20;;;;;;5023237;28;20257;-63
2023/04/02 13:59:49;;;;;;;;;;;14.70;36.40;;;;;;5027427;28;19917;-59
2023/04/02 14:02:16;;;;;;;;;;;14.40;36.90;;;;;;5027908;28;20281;-60
2023/04/02 14:04:43;;;;;;;;;;;14.30;36.80;;;;;;5026209;28;19917;-58
2023/04/02 14:07:23;;;;;;;;;;;14.20;37.20;;;;;;5028712;28;19924;-59
2023/04/02 14:10:07;;;;;;;;;;;14.00;37.10;;;;;;5029374;28;20384;-60
2023/04/02 14:12:50;;;;;;;;;;;13.90;37.30;;;;;;5029116;28;19956;-59
2023/04/02 14:15:51;;;;;;;;;;;13.90;37.30;;;;;;5030187;28;20337;-59
2023/04/02 14:18:35;;;;;;;;;;;13.80;37.70;;;;;;5022098;28;19924;-59
2023/04/02 14:21:20;;;;;;;;;;;13.80;37.50;;;;;;5025082;28;19913;-59
2023/04/02 14:23:51;;;;;;;;;;;13.70;37.60;;;;;;5028569;28;19964;-60
2023/04/02 14:26:16;;;;;;;;;;;13.70;37.90;;;;;;5027825;28;20004;-62
2023/04/02 14:28:45;;;;;;;;;;;13.80;37.90;;;;;;5029351;28;19964;-59
2023/04/02 14:31:17;;;;;;;;;;;13.70;38.10;;;;;;5027287;28;20368;-59
2023/04/02 14:33:51;;;;;;;;;;;13.70;38.40;;;;;;5027747;28;20341;-60
2023/04/02 14:36:36;;;;;;;;;;;13.70;38.70;;;;;;5026835;28;20042;-58
2023/04/02 14:39:01;;;;;;;;;;;13.70;37.80;;;;;;5026107;28;20012;-58
2023/04/02 14:41:32;;;;;;;;;;;13.70;37.80;;;;;;5034132;28;20051;-60
2023/04/02 14:44:05;;;;;;;;;;;13.80;37.90;;;;;;5029948;28;19925;-58